sensor_id;sensor_type;location;lat;lon;timestamp;pressure;altitude;pressure_sealevel;temperature;humidity
7376;BME280;3728;42.266;24.944;2023-04-08T00:02:26;99803.47;;;10.30;70.96
7376;BME280;3728;42.266;24.944;2023-04-08T00:04:53;99798.50;;;10.15;72.61
7376;BME280;3728;42.266;24.944;2023-04-08T00:07:21;99805.91;;;10.08;73.45
7376;BME280;3728;42.266;24.944;2023-04-08T00:09:49;99800.78;;;10.03;72.91
7376;BME280;3728;42.266;24.944;2023-04-08T00:12:18;99802.47;;;10.13;71.46
7376;BME280;3728;42.266;24.944;2023-04-08T00:14:46;99811.16;;;10.08;71.95
7376;BME280;3728;42.266;24.944;2023-04-08T00:17:13;99808.78;;;10.12;71.54
7376;BME280;3728;42.266;24.944;2023-04-08T00:19:41;99816.13;;;10.10;71.99
7376;BME280;3728;42.266;24.944;2023-04-08T00:22:09;99814.56;;;10.09;73.40
7376;BME280;3728;42.266;24.944;2023-04-08T00:24:37;99813.94;;;10.17;73.58
7376;BME280;3728;42.266;24.944;2023-04-08T00:27:06;99813.28;;;10.06;74.38
7376;BME280;3728;42.266;24.944;2023-04-08T00:29:33;99814.56;;;10.09;74.53
7376;BME280;3728;42.266;24.944;2023-04-08T00:32:01;99815.91;;;10.06;73.53
7376;BME280;3728;42.266;24.944;2023-04-08T00:34:29;99810.44;;;10.21;73.74
7376;BME280;3728;42.266;24.944;2023-04-08T00:36:58;99816.63;;;10.12;74.33
7376;BME280;3728;42.266;24.944;2023-04-08T00:39:26;99815.72;;;10.03;74.75
7376;BME280;3728;42.266;24.944;2023-04-08T00:41:54;99816.59;;;9.98;75.59
7376;BME280;3728;42.266;24.944;2023-04-08T00:44:23;99820.88;;;10.08;74.29
7376;BME280;3728;42.266;24.944;2023-04-08T00:46:50;99821.69;;;10.03;74.94
7376;BME280;3728;42.266;24.944;2023-04-08T00:49:18;99817.72;;;10.06;75.37
7376;BME280;3728;42.266;24.944;2023-04-08T00:51:46;99820.47;;;10.01;76.45
7376;BME280;3728;42.266;24.944;2023-04-08T00:54:13;99820.56;;;10.09;75.64
7376;BME280;3728;42.266;24.944;2023-04-08T00:56:42;99817.47;;;10.07;76.01
7376;BME280;3728;42.266;24.944;2023-04-08T00:59:10;99815.72;;;10.03;76.25
7376;BME280;3728;42.266;24.944;2023-04-08T01:07:51;99819.94;;;9.99;79.55
7376;BME280;3728;42.266;24.944;2023-04-08T01:10:22;99824.91;;;10.00;80.03
7376;BME280;3728;42.266;24.944;2023-04-08T01:12:56;99817.56;;;10.02;80.48
7376;BME280;3728;42.266;24.944;2023-04-08T01:15:32;99820.88;;;10.08;80.14
7376;BME280;3728;42.266;24.944;2023-04-08T01:18:06;99820.47;;;10.01;81.06
7376;BME280;3728;42.266;24.944;2023-04-08T01:20:35;99825.09;;;10.04;81.49
7376;BME280;3728;42.266;24.944;2023-04-08T01:23:20;99825.97;;;9.99;81.83
7376;BME280;3728;42.266;24.944;2023-04-08T01:26:01;99828.19;;;10.06;82.23
7376;BME280;3728;42.266;24.944;2023-04-08T01:28:30;99829.75;;;10.07;82.55
7376;BME280;3728;42.266;24.944;2023-04-08T01:30:59;99831.94;;;10.18;83.18
7376;BME280;3728;42.266;24.944;2023-04-08T01:33:29;99826.34;;;10.39;83.28
7376;BME280;3728;42.266;24.944;2023-04-08T01:35:58;99828.16;;;10.24;83.55
7376;BME280;3728;42.266;24.944;2023-04-08T01:38:30;99825.75;;;10.14;84.77
7376;BME280;3728;42.266;24.944;2023-04-08T01:40:58;99828.41;;;10.09;85.46
7376;BME280;3728;42.266;24.944;2023-04-08T01:43:29;99832.28;;;9.98;85.92
7376;BME280;3728;42.266;24.944;2023-04-08T01:45:58;99833.63;;;9.96;86.97
7376;BME280;3728;42.266;24.944;2023-04-08T01:48:27;99840.78;;;9.90;87.75
7376;BME280;3728;42.266;24.944;2023-04-08T01:50:56;99837.69;;;9.88;88.94
7376;BME280;3728;42.266;24.944;2023-04-08T01:53:24;99834.97;;;9.93;89.46
7376;BME280;3728;42.266;24.944;2023-04-08T01:55:57;99836.59;;;9.89;89.50
7376;BME280;3728;42.266;24.944;2023-04-08T01:58:34;99841.41;;;9.82;89.51
7376;BME280;3728;42.266;24.944;2023-04-08T02:01:09;99847.56;;;9.91;89.67
7376;BME280;3728;42.266;24.944;2023-04-08T02:03:40;99843.31;;;9.95;89.22
7376;BME280;3728;42.266;24.944;2023-04-08T02:06:09;99842.91;;;9.88;89.78
7376;BME280;3728;42.266;24.944;2023-04-08T02:08:37;99855.09;;;10.11;88.89
7376;BME280;3728;42.266;24.944;2023-04-08T02:11:04;99864.09;;;10.05;89.41
7376;BME280;3728;42.266;24.944;2023-04-08T02:13:32;99866.44;;;10.20;88.09
7376;BME280;3728;42.266;24.944;2023-04-08T02:16:07;99861.34;;;10.10;88.44
7376;BME280;3728;42.266;24.944;2023-04-08T02:18:42;99857.78;;;10.06;88.38
7376;BME280;3728;42.266;24.944;2023-04-08T02:21:14;99848.38;;;10.05;87.45
7376;BME280;3728;42.266;24.944;2023-04-08T02:23:45;99856.97;;;10.06;88.10
7376;BME280;3728;42.266;24.944;2023-04-08T02:26:17;99854.34;;;9.92;88.62
7376;BME280;3728;42.266;24.944;2023-04-08T02:28:48;99860.50;;;9.83;88.85
7376;BME280;3728;42.266;24.944;2023-04-08T02:31:17;99856.97;;;9.92;89.62
7376;BME280;3728;42.266;24.944;2023-04-08T02:33:47;99859.66;;;9.87;89.60
7376;BME280;3728;42.266;24.944;2023-04-08T02:36:16;99871.75;;;9.83;89.67
7376;BME280;3728;42.266;24.944;2023-04-08T02:38:47;99867.50;;;9.87;89.18
7376;BME280;3728;42.266;24.944;2023-04-08T02:41:16;99874.28;;;9.88;89.30
7376;BME280;3728;42.266;24.944;2023-04-08T02:43:43;99871.31;;;9.95;89.23
7376;BME280;3728;42.266;24.944;2023-04-08T02:46:13;99867.84;;;9.99;88.73
7376;BME280;3728;42.266;24.944;2023-04-08T02:48:41;99864.81;;;9.92;88.37
7376;BME280;3728;42.266;24.944;2023-04-08T02:51:09;99868.28;;;9.88;89.04
7376;BME280;3728;42.266;24.944;2023-04-08T02:53:36;99863.84;;;9.88;88.71
7376;BME280;3728;42.266;24.944;2023-04-08T02:56:04;99867.50;;;9.87;88.34
7376;BME280;3728;42.266;24.944;2023-04-08T02:58:32;99875.41;;;9.82;88.72
7376;BME280;3728;42.266;24.944;2023-04-08T03:00:59;99871.75;;;9.83;88.78
7376;BME280;3728;42.266;24.944;2023-04-08T03:03:27;99871.19;;;9.86;88.62
7376;BME280;3728;42.266;24.944;2023-04-08T03:05:56;99874.38;;;9.83;89.19
7376;BME280;3728;42.266;24.944;2023-04-08T03:08:24;99880.41;;;10.16;89.67
7376;BME280;3728;42.266;24.944;2023-04-08T03:10:51;99882.00;;;10.30;87.89
7376;BME280;3728;42.266;24.944;2023-04-08T03:13:19;99880.09;;;10.17;88.89
7376;BME280;3728;42.266;24.944;2023-04-08T03:15:47;99887.72;;;10.32;89.39
7376;BME280;3728;42.266;24.944;2023-04-08T03:18:14;99900.78;;;10.00;90.11
7376;BME280;3728;42.266;24.944;2023-04-08T03:20:43;99899.78;;;9.96;89.29
7376;BME280;3728;42.266;24.944;2023-04-08T03:23:10;99892.91;;;9.87;90.00
7376;BME280;3728;42.266;24.944;2023-04-08T03:25:38;99902.22;;;9.93;90.46
7376;BME280;3728;42.266;24.944;2023-04-08T03:28:05;99908.03;;;10.03;90.38
7376;BME280;3728;42.266;24.944;2023-04-08T03:30:33;99897.97;;;9.78;91.07
7376;BME280;3728;42.266;24.944;2023-04-08T03:33:01;99902.31;;;9.69;91.59
7376;BME280;3728;42.266;24.944;2023-04-08T03:35:33;99906.91;;;9.77;90.55
7376;BME280;3728;42.266;24.944;2023-04-08T03:38:01;99908.31;;;9.88;90.07
7376;BME280;3728;42.266;24.944;2023-04-08T03:40:28;99912.38;;;9.94;89.06
7376;BME280;3728;42.266;24.944;2023-04-08T03:42:56;99912.97;;;9.91;88.72
7376;BME280;3728;42.266;24.944;2023-04-08T03:45:23;99911.91;;;9.92;88.67
7376;BME280;3728;42.266;24.944;2023-04-08T03:47:51;99910.69;;;9.85;88.62
7376;BME280;3728;42.266;24.944;2023-04-08T03:50:18;99908.88;;;9.85;88.95
7376;BME280;3728;42.266;24.944;2023-04-08T03:52:46;99906.06;;;9.82;89.32
7376;BME280;3728;42.266;24.944;2023-04-08T03:55:14;99904.84;;;9.74;89.52
7376;BME280;3728;42.266;24.944;2023-04-08T03:57:43;99906.63;;;9.79;89.23
7376;BME280;3728;42.266;24.944;2023-04-08T04:00:11;99908.22;;;9.93;88.06
7376;BME280;3728;42.266;24.944;2023-04-08T04:02:39;99903.94;;;9.84;89.48
7376;BME280;3728;42.266;24.944;2023-04-08T04:05:07;99906.25;;;9.85;88.90
7376;BME280;3728;42.266;24.944;2023-04-08T04:07:35;99904.97;;;9.83;88.94
7376;BME280;3728;42.266;24.944;2023-04-08T04:10:03;99906.81;;;9.82;88.67
7376;BME280;3728;42.266;24.944;2023-04-08T04:12:31;99905.19;;;9.86;88.82
7376;BME280;3728;42.266;24.944;2023-04-08T04:14:58;99909.16;;;9.84;89.41
7376;BME280;3728;42.266;24.944;2023-04-08T04:17:26;99907.22;;;9.89;88.58
7376;BME280;3728;42.266;24.944;2023-04-08T04:19:53;99908.09;;;9.85;88.87
7376;BME280;3728;42.266;24.944;2023-04-08T04:22:21;99913.41;;;9.80;89.27
7376;BME280;3728;42.266;24.944;2023-04-08T04:24:49;99909.34;;;9.87;89.70
7376;BME280;3728;42.266;24.944;2023-04-08T04:27:16;99912.03;;;9.82;90.11
7376;BME280;3728;42.266;24.944;2023-04-08T04:29:44;99923.06;;;10.16;88.49
7376;BME280;3728;42.266;24.944;2023-04-08T04:32:11;99932.88;;;10.84;86.02
7376;BME280;3728;42.266;24.944;2023-04-08T04:34:39;99930.44;;;10.87;84.23
7376;BME280;3728;42.266;24.944;2023-04-08T04:37:06;99931.00;;;10.57;85.91
7376;BME280;3728;42.266;24.944;2023-04-08T04:39:34;99931.72;;;10.30;86.97
7376;BME280;3728;42.266;24.944;2023-04-08T04:42:01;99924.13;;;10.15;87.51
7376;BME280;3728;42.266;24.944;2023-04-08T04:44:30;99918.63;;;9.98;88.10
7376;BME280;3728;42.266;24.944;2023-04-08T04:46:58;99923.63;;;10.13;87.84
7376;BME280;3728;42.266;24.944;2023-04-08T04:49:25;99925.19;;;10.14;86.94
7376;BME280;3728;42.266;24.944;2023-04-08T04:51:52;99932.78;;;10.11;87.06
7376;BME280;3728;42.266;24.944;2023-04-08T04:54:20;99926.28;;;10.27;86.31
7376;BME280;3728;42.266;24.944;2023-04-08T04:56:48;99931.97;;;10.15;86.38
7376;BME280;3728;42.266;24.944;2023-04-08T04:59:15;99925.03;;;10.06;87.26
7376;BME280;3728;42.266;24.944;2023-04-08T05:01:43;99928.84;;;10.13;86.95
7376;BME280;3728;42.266;24.944;2023-04-08T05:04:10;99928.88;;;10.27;86.10
7376;BME280;3728;42.266;24.944;2023-04-08T05:06:38;99919.03;;;10.24;85.65
7376;BME280;3728;42.266;24.944;2023-04-08T05:09:05;99931.97;;;10.15;86.83
7376;BME280;3728;42.266;24.944;2023-04-08T05:11:33;99931.25;;;10.28;85.57
7376;BME280;3728;42.266;24.944;2023-04-08T05:14:00;99933.03;;;10.60;84.00
7376;BME280;3728;42.266;24.944;2023-04-08T05:16:28;99939.84;;;11.16;79.64
7376;BME280;3728;42.266;24.944;2023-04-08T05:18:56;99941.78;;;10.69;81.29
7376;BME280;3728;42.266;24.944;2023-04-08T05:21:23;99938.66;;;10.54;81.87
7376;BME280;3728;42.266;24.944;2023-04-08T05:23:52;99940.56;;;10.35;84.33
7376;BME280;3728;42.266;24.944;2023-04-08T05:26:20;99934.25;;;10.36;84.04
7376;BME280;3728;42.266;24.944;2023-04-08T05:28:48;99938.41;;;10.37;85.23
7376;BME280;3728;42.266;24.944;2023-04-08T05:31:18;99943.31;;;10.57;84.02
7376;BME280;3728;42.266;24.944;2023-04-08T05:33:46;99949.03;;;10.59;83.79
7376;BME280;3728;42.266;24.944;2023-04-08T05:36:14;99946.63;;;10.62;82.75
7376;BME280;3728;42.266;24.944;2023-04-08T05:38:41;99953.81;;;10.97;81.73
7376;BME280;3728;42.266;24.944;2023-04-08T05:41:09;99961.00;;;11.33;80.54
7376;BME280;3728;42.266;24.944;2023-04-08T05:43:37;99967.00;;;11.60;77.34
7376;BME280;3728;42.266;24.944;2023-04-08T05:46:08;99972.09;;;11.16;77.47
7376;BME280;3728;42.266;24.944;2023-04-08T05:48:36;99973.84;;;11.21;78.39
7376;BME280;3728;42.266;24.944;2023-04-08T05:51:04;99964.22;;;10.89;79.37
7376;BME280;3728;42.266;24.944;2023-04-08T05:53:31;99967.03;;;10.92;80.19
7376;BME280;3728;42.266;24.944;2023-04-08T05:55:59;99955.47;;;10.93;81.05
7376;BME280;3728;42.266;24.944;2023-04-08T05:58:26;99956.34;;;10.75;79.21
7376;BME280;3728;42.266;24.944;2023-04-08T06:00:54;99954.13;;;10.82;79.83
7376;BME280;3728;42.266;24.944;2023-04-08T06:03:21;99954.69;;;10.93;78.92
7376;BME280;3728;42.266;24.944;2023-04-08T06:05:49;99961.31;;;11.04;79.66
7376;BME280;3728;42.266;24.944;2023-04-08T06:08:17;99955.00;;;11.05;78.71
7376;BME280;3728;42.266;24.944;2023-04-08T06:10:49;99955.28;;;11.17;77.15
7376;BME280;3728;42.266;24.944;2023-04-08T06:13:17;99963.94;;;11.04;78.17
7376;BME280;3728;42.266;24.944;2023-04-08T06:15:46;99958.69;;;11.04;78.19
7376;BME280;3728;42.266;24.944;2023-04-08T06:18:16;99969.16;;;11.18;77.06
7376;BME280;3728;42.266;24.944;2023-04-08T06:20:43;99971.00;;;11.44;74.49
7376;BME280;3728;42.266;24.944;2023-04-08T06:23:12;99968.97;;;11.41;75.56
7376;BME280;3728;42.266;24.944;2023-04-08T06:25:40;99970.50;;;11.29;76.10
7376;BME280;3728;42.266;24.944;2023-04-08T06:28:07;99972.34;;;11.55;74.54
7376;BME280;3728;42.266;24.944;2023-04-08T06:30:35;99972.84;;;11.44;75.84
7376;BME280;3728;42.266;24.944;2023-04-08T06:33:03;99976.03;;;11.54;75.37
7376;BME280;3728;42.266;24.944;2023-04-08T06:35:31;99974.75;;;11.65;74.19
7376;BME280;3728;42.266;24.944;2023-04-08T06:37:58;99968.16;;;11.68;74.41
7376;BME280;3728;42.266;24.944;2023-04-08T06:40:26;99965.03;;;12.24;72.16
7376;BME280;3728;42.266;24.944;2023-04-08T06:42:53;99955.97;;;12.08;72.19
7376;BME280;3728;42.266;24.944;2023-04-08T06:45:35;99971.72;;;12.08;73.02
7376;BME280;3728;42.266;24.944;2023-04-08T06:48:03;99976.13;;;12.21;72.27
7376;BME280;3728;42.266;24.944;2023-04-08T06:50:32;99970.00;;;12.03;73.58
7376;BME280;3728;42.266;24.944;2023-04-08T06:52:59;99968.50;;;11.89;73.94
7376;BME280;3728;42.266;24.944;2023-04-08T06:55:27;99966.50;;;11.94;74.94
7376;BME280;3728;42.266;24.944;2023-04-08T06:57:54;99972.00;;;12.06;74.53
7376;BME280;3728;42.266;24.944;2023-04-08T07:00:22;99972.47;;;12.08;73.17
7376;BME280;3728;42.266;24.944;2023-04-08T07:02:49;99973.00;;;12.10;73.70
7376;BME280;3728;42.266;24.944;2023-04-08T07:05:17;99968.56;;;12.19;73.33
7376;BME280;3728;42.266;24.944;2023-04-08T07:07:45;99978.59;;;12.17;72.53
7376;BME280;3728;42.266;24.944;2023-04-08T07:10:12;99969.50;;;12.23;71.58
7376;BME280;3728;42.266;24.944;2023-04-08T07:12:40;99967.03;;;12.49;72.11
7376;BME280;3728;42.266;24.944;2023-04-08T07:15:08;99973.31;;;12.62;70.50
7376;BME280;3728;42.266;24.944;2023-04-08T07:17:36;99963.56;;;12.62;71.12
7376;BME280;3728;42.266;24.944;2023-04-08T07:20:05;99960.56;;;12.86;68.06
7376;BME280;3728;42.266;24.944;2023-04-08T07:22:33;99966.94;;;12.93;69.53
7376;BME280;3728;42.266;24.944;2023-04-08T07:25:00;99973.91;;;12.98;67.98
7376;BME280;3728;42.266;24.944;2023-04-08T07:27:28;99970.44;;;12.80;70.23
7376;BME280;3728;42.266;24.944;2023-04-08T07:29:55;99973.09;;;13.20;68.18
7376;BME280;3728;42.266;24.944;2023-04-08T07:32:23;99969.66;;;13.11;68.55
7376;BME280;3728;42.266;24.944;2023-04-08T07:34:51;99972.63;;;13.18;68.26
7376;BME280;3728;42.266;24.944;2023-04-08T07:37:18;99972.88;;;13.81;67.28
7376;BME280;3728;42.266;24.944;2023-04-08T07:39:46;99970.09;;;13.86;65.67
7376;BME280;3728;42.266;24.944;2023-04-08T07:42:14;99976.44;;;14.02;65.56
7376;BME280;3728;42.266;24.944;2023-04-08T07:44:41;99974.41;;;13.99;64.50
7376;BME280;3728;42.266;24.944;2023-04-08T07:47:09;99974.91;;;13.84;65.13
7376;BME280;3728;42.266;24.944;2023-04-08T07:49:39;99972.75;;;13.78;65.07
7376;BME280;3728;42.266;24.944;2023-04-08T07:52:06;99968.22;;;13.95;65.81
7376;BME280;3728;42.266;24.944;2023-04-08T07:54:34;99965.56;;;14.29;65.26
7376;BME280;3728;42.266;24.944;2023-04-08T07:57:01;99965.09;;;14.45;64.27
7376;BME280;3728;42.266;24.944;2023-04-08T07:59:30;99977.69;;;14.77;62.24
7376;BME280;3728;42.266;24.944;2023-04-08T08:02:00;99982.81;;;14.82;60.95
7376;BME280;3728;42.266;24.944;2023-04-08T08:04:28;99985.53;;;15.02;61.09
7376;BME280;3728;42.266;24.944;2023-04-08T08:06:55;99981.63;;;14.71;59.51
7376;BME280;3728;42.266;24.944;2023-04-08T08:09:22;99972.38;;;14.13;64.17
7376;BME280;3728;42.266;24.944;2023-04-08T08:11:50;99974.72;;;14.15;64.03
7376;BME280;3728;42.266;24.944;2023-04-08T08:14:18;99981.69;;;14.28;62.81
7376;BME280;3728;42.266;24.944;2023-04-08T08:16:45;99977.97;;;14.20;62.98
7376;BME280;3728;42.266;24.944;2023-04-08T08:19:15;99978.91;;;14.07;63.89
7376;BME280;3728;42.266;24.944;2023-04-08T08:21:42;99979.38;;;14.44;62.13
7376;BME280;3728;42.266;24.944;2023-04-08T08:24:10;99979.81;;;14.46;61.99
7376;BME280;3728;42.266;24.944;2023-04-08T08:26:38;99975.63;;;14.45;62.47
7376;BME280;3728;42.266;24.944;2023-04-08T08:29:06;99975.56;;;14.79;65.36
7376;BME280;3728;42.266;24.944;2023-04-08T08:31:34;99977.97;;;14.92;62.51
7376;BME280;3728;42.266;24.944;2023-04-08T08:34:02;99980.25;;;15.32;59.57
7376;BME280;3728;42.266;24.944;2023-04-08T08:36:29;99972.72;;;15.51;60.35
7376;BME280;3728;42.266;24.944;2023-04-08T08:38:59;99977.38;;;15.74;58.50
7376;BME280;3728;42.266;24.944;2023-04-08T08:41:32;99968.22;;;15.72;57.08
7376;BME280;3728;42.266;24.944;2023-04-08T08:44:04;99972.53;;;15.56;59.01
7376;BME280;3728;42.266;24.944;2023-04-08T08:46:33;99975.31;;;15.80;56.03
7376;BME280;3728;42.266;24.944;2023-04-08T08:49:01;99974.53;;;15.59;57.52
7376;BME280;3728;42.266;24.944;2023-04-08T08:51:30;99970.16;;;15.63;56.58
7376;BME280;3728;42.266;24.944;2023-04-08T08:54:02;99972.22;;;15.28;58.86
7376;BME280;3728;42.266;24.944;2023-04-08T08:56:32;99970.47;;;15.03;58.40
7376;BME280;3728;42.266;24.944;2023-04-08T08:59:00;99962.06;;;15.10;59.75
7376;BME280;3728;42.266;24.944;2023-04-08T09:01:39;99967.84;;;15.32;60.30
7376;BME280;3728;42.266;24.944;2023-04-08T09:06:47;99957.47;;;15.56;58.34
7376;BME280;3728;42.266;24.944;2023-04-08T09:09:16;99955.34;;;15.70;58.56
7376;BME280;3728;42.266;24.944;2023-04-08T09:11:46;99962.97;;;16.05;57.63
7376;BME280;3728;42.266;24.944;2023-04-08T09:14:23;99954.25;;;16.25;54.88
7376;BME280;3728;42.266;24.944;2023-04-08T09:16:54;99958.94;;;16.52;54.53
7376;BME280;3728;42.266;24.944;2023-04-08T09:19:21;99959.31;;;16.75;52.41
7376;BME280;3728;42.266;24.944;2023-04-08T09:24:33;99960.53;;;16.77;51.48
7376;BME280;3728;42.266;24.944;2023-04-08T09:27:04;99958.53;;;16.86;50.20
7376;BME280;3728;42.266;24.944;2023-04-08T09:29:35;99953.59;;;17.21;50.06
7376;BME280;3728;42.266;24.944;2023-04-08T09:32:05;99956.88;;;17.30;51.24
7376;BME280;3728;42.266;24.944;2023-04-08T09:34:33;99955.22;;;17.38;50.55
7376;BME280;3728;42.266;24.944;2023-04-08T09:37:01;99951.00;;;18.16;48.01
7376;BME280;3728;42.266;24.944;2023-04-08T09:39:28;99960.09;;;18.15;47.34
7376;BME280;3728;42.266;24.944;2023-04-08T09:41:59;99954.28;;;17.98;48.38
7376;BME280;3728;42.266;24.944;2023-04-08T09:44:27;99949.09;;;18.01;47.99
7376;BME280;3728;42.266;24.944;2023-04-08T09:50:01;99948.53;;;18.23;47.58
7376;BME280;3728;42.266;24.944;2023-04-08T09:52:32;99939.84;;;17.95;48.69
7376;BME280;3728;42.266;24.944;2023-04-08T09:55:12;99936.28;;;18.03;48.51
7376;BME280;3728;42.266;24.944;2023-04-08T09:57:54;99945.69;;;18.01;49.07
7376;BME280;3728;42.266;24.944;2023-04-08T10:00:31;99945.78;;;18.63;47.15
7376;BME280;3728;42.266;24.944;2023-04-08T10:03:20;99941.63;;;17.91;49.35
7376;BME280;3728;42.266;24.944;2023-04-08T10:06:02;99934.31;;;17.72;49.48
7376;BME280;3728;42.266;24.944;2023-04-08T10:08:32;99938.88;;;17.88;47.07
7376;BME280;3728;42.266;24.944;2023-04-08T10:11:01;99949.22;;;17.65;47.82
7376;BME280;3728;42.266;24.944;2023-04-08T10:13:32;99938.66;;;17.53;47.59
7376;BME280;3728;42.266;24.944;2023-04-08T10:18:52;99931.16;;;18.10;47.47
7376;BME280;3728;42.266;24.944;2023-04-08T10:21:38;99932.06;;;18.30;47.22
7376;BME280;3728;42.266;24.944;2023-04-08T10:24:14;99923.56;;;18.09;46.31
7376;BME280;3728;42.266;24.944;2023-04-08T10:26:43;99924.47;;;18.01;47.67
7376;BME280;3728;42.266;24.944;2023-04-08T10:31:49;99922.13;;;18.27;45.79
7376;BME280;3728;42.266;24.944;2023-04-08T10:34:22;99918.53;;;18.35;47.04
7376;BME280;3728;42.266;24.944;2023-04-08T10:36:54;99912.97;;;18.24;46.34
7376;BME280;3728;42.266;24.944;2023-04-08T10:39:24;99916.09;;;18.14;46.76
7376;BME280;3728;42.266;24.944;2023-04-08T10:41:55;99911.41;;;18.23;46.64
7376;BME280;3728;42.266;24.944;2023-04-08T10:44:25;99909.16;;;18.53;45.59
7376;BME280;3728;42.266;24.944;2023-04-08T10:46:53;99906.34;;;18.62;46.16
7376;BME280;3728;42.266;24.944;2023-04-08T10:49:21;99916.56;;;18.94;45.51
7376;BME280;3728;42.266;24.944;2023-04-08T10:51:49;99909.22;;;19.23;44.64
7376;BME280;3728;42.266;24.944;2023-04-08T10:54:18;99909.91;;;19.00;42.60
7376;BME280;3728;42.266;24.944;2023-04-08T10:56:48;99893.69;;;18.55;43.75
7376;BME280;3728;42.266;24.944;2023-04-08T10:59:28;99886.91;;;18.58;43.60
7376;BME280;3728;42.266;24.944;2023-04-08T11:01:57;99890.41;;;18.62;44.41
7376;BME280;3728;42.266;24.944;2023-04-08T11:04:30;99889.53;;;18.73;44.74
7376;BME280;3728;42.266;24.944;2023-04-08T11:07:05;99898.66;;;18.91;45.08
7376;BME280;3728;42.266;24.944;2023-04-08T11:09:34;99887.22;;;18.87;42.27
7376;BME280;3728;42.266;24.944;2023-04-08T11:12:03;99887.16;;;18.37;45.64
7376;BME280;3728;42.266;24.944;2023-04-08T11:14:30;99879.94;;;18.37;45.73
7376;BME280;3728;42.266;24.944;2023-04-08T11:16:59;99881.31;;;18.78;43.24
7376;BME280;3728;42.266;24.944;2023-04-08T11:19:32;99888.59;;;19.16;42.77
7376;BME280;3728;42.266;24.944;2023-04-08T11:22:02;99879.69;;;19.24;42.89
7376;BME280;3728;42.266;24.944;2023-04-08T11:24:33;99879.09;;;19.34;44.41
7376;BME280;3728;42.266;24.944;2023-04-08T11:27:04;99880.28;;;19.52;42.16
7376;BME280;3728;42.266;24.944;2023-04-08T11:29:33;99879.00;;;19.65;42.84
7376;BME280;3728;42.266;24.944;2023-04-08T11:32:01;99872.38;;;19.98;43.47
7376;BME280;3728;42.266;24.944;2023-04-08T11:34:37;99876.56;;;20.40;41.82
7376;BME280;3728;42.266;24.944;2023-04-08T11:37:07;99881.66;;;20.07;41.09
7376;BME280;3728;42.266;24.944;2023-04-08T11:39:41;99868.25;;;19.58;41.81
7376;BME280;3728;42.266;24.944;2023-04-08T11:42:28;99872.19;;;19.45;42.80
7376;BME280;3728;42.266;24.944;2023-04-08T11:44:57;99858.28;;;18.82;43.25
7376;BME280;3728;42.266;24.944;2023-04-08T11:47:32;99856.94;;;19.07;43.65
7376;BME280;3728;42.266;24.944;2023-04-08T11:50:04;99858.63;;;18.81;44.42
7376;BME280;3728;42.266;24.944;2023-04-08T11:52:59;99849.59;;;18.66;44.24
7376;BME280;3728;42.266;24.944;2023-04-08T11:55:31;99845.16;;;18.89;43.38
7376;BME280;3728;42.266;24.944;2023-04-08T11:58:03;99850.59;;;19.12;44.06
7376;BME280;3728;42.266;24.944;2023-04-08T12:00:33;99837.75;;;19.33;43.49
7376;BME280;3728;42.266;24.944;2023-04-08T12:03:06;99838.44;;;19.30;43.43
7376;BME280;3728;42.266;24.944;2023-04-08T12:05:34;99832.03;;;19.50;43.12
7376;BME280;3728;42.266;24.944;2023-04-08T12:08:02;99824.75;;;19.66;42.88
7376;BME280;3728;42.266;24.944;2023-04-08T12:10:32;99823.53;;;19.83;41.52
7376;BME280;3728;42.266;24.944;2023-04-08T12:12:59;99823.00;;;19.97;41.35
7376;BME280;3728;42.266;24.944;2023-04-08T12:15:27;99821.25;;;20.27;42.27
7376;BME280;3728;42.266;24.944;2023-04-08T12:17:54;99815.44;;;20.70;40.74
7376;BME280;3728;42.266;24.944;2023-04-08T12:20:22;99812.13;;;20.80;40.05
7376;BME280;3728;42.266;24.944;2023-04-08T12:22:50;99813.69;;;21.11;41.36
7376;BME280;3728;42.266;24.944;2023-04-08T12:25:17;99817.06;;;21.08;39.06
7376;BME280;3728;42.266;24.944;2023-04-08T12:27:45;99805.00;;;21.18;38.99
7376;BME280;3728;42.266;24.944;2023-04-08T12:30:13;99799.13;;;21.35;40.27
7376;BME280;3728;42.266;24.944;2023-04-08T12:32:43;99789.38;;;21.13;39.15
7376;BME280;3728;42.266;24.944;2023-04-08T12:35:13;99793.31;;;20.66;39.48
7376;BME280;3728;42.266;24.944;2023-04-08T12:37:41;99790.19;;;20.34;39.92
7376;BME280;3728;42.266;24.944;2023-04-08T12:40:09;99785.63;;;20.12;38.85
7376;BME280;3728;42.266;24.944;2023-04-08T12:42:37;99776.81;;;20.54;38.23
7376;BME280;3728;42.266;24.944;2023-04-08T12:45:06;99778.78;;;20.60;40.26
7376;BME280;3728;42.266;24.944;2023-04-08T12:47:35;99787.34;;;20.47;40.12
7376;BME280;3728;42.266;24.944;2023-04-08T12:50:03;99780.00;;;20.66;39.16
7376;BME280;3728;42.266;24.944;2023-04-08T12:52:33;99784.31;;;20.48;39.80
7376;BME280;3728;42.266;24.944;2023-04-08T12:55:01;99779.78;;;21.08;39.60
7376;BME280;3728;42.266;24.944;2023-04-08T12:57:29;99781.16;;;21.28;39.76
7376;BME280;3728;42.266;24.944;2023-04-08T12:59:57;99772.16;;;21.06;39.07
7376;BME280;3728;42.266;24.944;2023-04-08T13:02:25;99770.22;;;21.37;39.21
7376;BME280;3728;42.266;24.944;2023-04-08T13:04:53;99770.25;;;21.40;38.98
7376;BME280;3728;42.266;24.944;2023-04-08T13:07:20;99771.09;;;21.48;39.01
7376;BME280;3728;42.266;24.944;2023-04-08T13:09:47;99768.91;;;21.57;40.69
7376;BME280;3728;42.266;24.944;2023-04-08T13:12:17;99764.03;;;21.66;38.86
7376;BME280;3728;42.266;24.944;2023-04-08T13:14:45;99761.31;;;21.59;40.13
7376;BME280;3728;42.266;24.944;2023-04-08T13:17:14;99758.53;;;21.11;39.74
7376;BME280;3728;42.266;24.944;2023-04-08T13:19:42;99754.63;;;20.46;40.31
7376;BME280;3728;42.266;24.944;2023-04-08T13:22:09;99754.34;;;20.51;41.16
7376;BME280;3728;42.266;24.944;2023-04-08T13:24:36;99761.59;;;20.05;42.78
7376;BME280;3728;42.266;24.944;2023-04-08T13:27:04;99748.09;;;19.68;41.95
7376;BME280;3728;42.266;24.944;2023-04-08T13:29:31;99741.72;;;19.31;42.36
7376;BME280;3728;42.266;24.944;2023-04-08T13:31:59;99748.38;;;19.22;42.85
7376;BME280;3728;42.266;24.944;2023-04-08T13:34:27;99740.75;;;19.20;42.35
7376;BME280;3728;42.266;24.944;2023-04-08T13:36:55;99740.34;;;19.60;41.40
7376;BME280;3728;42.266;24.944;2023-04-08T13:39:22;99751.78;;;19.22;43.76
7376;BME280;3728;42.266;24.944;2023-04-08T13:41:49;99742.84;;;19.11;45.31
7376;BME280;3728;42.266;24.944;2023-04-08T13:44:17;99748.94;;;18.92;46.22